• Join FlightAware (Why Join?)
  • Login
  • US Flag 
Rudolph Flight #1: Arrived! 
01:46AM EST


 

Airport Tracker/Info


-or-


 

Live Flight TrackerFlight Track Log ✈ UCA3599 ✈ 10-Sep-2013 ✈ KBGM - KIAD

Flight Track Log - Related Links

Times and Time Zones

All times are in EDT time to prevent confusion due to time zone crossing. See the UCA3599 flight status page for this flight to view local times or setup timezone preferences in your user account.

Time Position Orientation Groundspeed Altitude Reporting Facility
EDT Latitude Longitude Course Direction KTS MPH feet Rate Location/Type
06:09AM 42.1369 -75.9558 217° Southwest 171 197 3,900  Level New York Center
06:10AM 42.1044 -75.9894 218° Southwest 157 181 5,300 1,320 Climbing New York Center
06:11AM 42.0692 -76.0286 219° Southwest 162 186 6,600 1,500 Climbing New York Center
06:12AM 42.0278 -76.0700 217° Southwest 167 192 8,300 1,500 Climbing New York Center
06:13AM 41.9931 -76.1061 218° Southwest 174 200 9,600 1,320 Climbing New York Center
06:14AM 41.9494 -76.1500 217° Southwest 180 207 11,000 1,200 Climbing New York Center
06:15AM 41.9081 -76.1914 217° Southwest 186 214 12,000 900 Climbing New York Center
06:16AM 41.8600 -76.2403 217° Southwest 200 230 12,900 900 Climbing New York Center
06:17AM 41.8183 -76.2842 218° Southwest 218 251 13,900 1,080 Climbing New York Center
06:18AM 41.7700 -76.3358 219° Southwest 218 251 15,100 1,020 Climbing New York Center
06:19AM 41.7175 -76.3925 219° Southwest 218 251 16,000 420 Climbing New York Center
06:20AM 41.6628 -76.4464 216° Southwest 232 267 16,000  Level New York Center
06:21AM 41.6036 -76.5050 217° Southwest 259 298 16,000  Level New York Center
06:22AM 41.5511 -76.5589 218° Southwest 264 304 16,000  Level New York Center
06:23AM 41.4853 -76.6253 217° Southwest 269 310 16,000  Level New York Center
06:24AM 41.4186 -76.6692 206° Southwest 269 310 16,000  Level New York Center
06:25AM 41.3419 -76.7011 197° South 275 316 16,000  Level New York Center
06:26AM 41.2681 -76.7222 192° South 285 328 16,000  Level New York Center
06:27AM 41.1897 -76.7458 193° South 285 328 16,000  Level New York Center
06:28AM 41.1156 -76.7722 195° South 285 328 16,000  Level New York Center
06:29AM 41.0414 -76.7958 194° South 285 328 16,000  Level New York Center
06:30AM 40.9653 -76.8194 193° South 285 328 16,000  Level New York Center
06:31AM 40.8911 -76.8431 194° South 279 321 16,000  Level New York Center
06:32AM 40.8231 -76.8672 195° South 284 327 16,000  Level New York Center
06:33AM 40.7383 -76.8925 193° South 284 327 16,000  Level New York Center
06:34AM 40.6706 -76.9139 193° South 284 327 16,000  Level New York Center
06:35AM 40.5858 -76.9419 194° South 284 327 16,000  Level New York Center
06:36AM 40.5158 -76.9628 193° South 284 327 16,000  Level New York Center
06:37AM 40.4353 -76.9911 195° South 284 327 16,000  Level New York Center
06:38AM 40.3653 -77.0119 193° South 284 327 16,000 -300 Level New York Center
06:39AM 40.2806 -77.0397 194° South 284 327 15,400 -840 Descending New York Center
06:41AM 40.1167 -77.0833 192° South 312 359 13,700 -1,020 Descending Potomac TRACON
06:42AM 40.0333 -77.1167 197° South 296 341 12,500 -1,200 Descending Potomac TRACON
06:43AM 39.9667 -77.1167 180° South 274 315 11,300 -1,200 Descending Potomac TRACON
06:44AM 39.9000 -77.1000 169° South 271 312 10,200 -1,260 Descending Potomac TRACON
06:45AM 39.8333 -77.0833 169° South 279 321 9,100 -1,260 Descending Potomac TRACON
06:46AM 39.7500 -77.0833 180° South 269 310 7,900 -1,080 Descending Potomac TRACON
06:47AM 39.7167 -77.1500 237° Southwest 254 292 7,000 -480 Descending Potomac TRACON
06:48AM 39.6833 -77.2333 243° Southwest 245 282 7,000  Level Potomac TRACON
06:49AM 39.6333 -77.2833 218° Southwest 245 282 7,000 -180 Level Potomac TRACON
06:50AM 39.5833 -77.3167 207° Southwest 251 289 6,700 -540 Descending Potomac TRACON
06:51AM 39.5167 -77.3500 201° Southwest 263 303 6,000 -720 Descending Potomac TRACON
06:52AM 39.4500 -77.4000 210° Southwest 263 303 5,300 -720 Descending Potomac TRACON
06:53AM 39.3667 -77.4167 189° South 265 305 4,600 -780 Descending Potomac TRACON
06:53AM 39.3000 -77.4333 191° South 261 300 3,900 -780 Descending Potomac TRACON
06:54AM 39.2333 -77.4333 180° South 262 302 3,200 -480 Descending Potomac TRACON
06:55AM 39.1667 -77.4333 180° South 231 266 3,000 -120 Descending Potomac TRACON
06:56AM 39.1167 -77.4333 180° South 197 227 3,000 -480 Level Potomac TRACON
06:57AM 39.0667 -77.4333 180° South 190 219 2,200 -900 Descending Potomac TRACON
06:58AM 39.0167 -77.4333 180° South 156 180 1,400 -780 Descending Potomac TRACON
06:59AM 38.9833 -77.4333 180° South 123 142 800 -720 Descending Potomac TRACON
07:01AM 38.9474 -77.4599 180° South  Level Estimated
07:08AM 38.9474 -77.4599 349° North  Level Estimated
07:09AM 38.9474 -77.4599 349° North  Level Estimated
07:10AM 38.9474 -77.4599 349° North  Level Estimated